Time;durP1;ratioP1;P1;durP2;ratioP2;P2;SDS_P1;SDS_P2;PMS_P1;PMS_P2;Temp;Humidity;BMP_temperature;BMP_pressure;BME280_temperature;BME280_humidity;BME280_pressure;Samples;Min_cycle;Max_cycle;Signal;HPM_P1;HPM_P2
2021/03/05 00:09:30;;;;;;;25.20;7.57;;;4.30;99.90;;;;;;6655641;88;20482;-76
2021/03/05 00:19:31;;;;;;;21.75;8.10;;;4.20;99.90;;;;;;6655114;89;20235;-76
2021/03/05 00:29:31;;;;;;;23.90;7.90;;;4.10;99.90;;;;;;6652708;89;20212;-75
2021/03/05 00:39:32;;;;;;;28.62;8.40;;;4.10;99.90;;;;;;6662605;89;20500;-77
2021/03/05 00:49:32;;;;;;;23.67;8.25;;;4.10;99.90;;;;;;6656609;89;20234;-76
2021/03/05 00:59:33;;;;;;;30.60;8.75;;;4.10;99.90;;;;;;6665605;89;20233;-77
2021/03/05 01:09:34;;;;;;;21.10;8.15;;;4.00;99.90;;;;;;6658450;89;20290;-77
2021/03/05 01:19:34;;;;;;;22.92;8.73;;;4.00;99.90;;;;;;6661002;89;20222;-76
2021/03/05 01:29:35;;;;;;;24.98;7.82;;;3.80;99.90;;;;;;6661627;89;20200;-77
2021/03/05 01:39:35;;;;;;;19.98;7.78;;;3.90;99.90;;;;;;6659127;89;20219;-77
2021/03/05 01:49:36;;;;;;;14.27;6.15;;;3.90;99.90;;;;;;6660539;89;20540;-77
2021/03/05 01:59:37;;;;;;;14.80;5.43;;;4.00;99.90;;;;;;6660124;89;20213;-76
2021/03/05 02:09:37;;;;;;;15.85;4.57;;;3.80;99.90;;;;;;6665677;89;20219;-73
2021/03/05 02:20:07;;;;;;;14.25;4.72;;;3.70;99.90;;;;;;6661074;89;20209;-75
2021/03/05 02:30:32;;;;;;;17.98;5.32;;;3.50;99.90;;;;;;6663029;89;20177;-76
2021/03/05 02:40:38;;;;;;;21.00;6.10;;;3.40;99.90;;;;;;6663051;89;20729;-75
2021/03/05 02:50:48;;;;;;;21.20;5.22;;;3.40;99.90;;;;;;6661860;89;20225;-76
2021/03/05 03:00:50;;;;;;;18.02;4.97;;;3.20;99.90;;;;;;6659917;89;20266;-77
2021/03/05 03:10:52;;;;;;;19.48;4.75;;;3.30;99.90;;;;;;6664426;89;20195;-76
2021/03/05 03:20:58;;;;;;;18.30;4.60;;;3.20;99.90;;;;;;6665679;89;20264;-78
2021/03/05 03:30:58;;;;;;;16.43;4.07;;;3.20;99.90;;;;;;6665822;89;20680;-76
2021/03/05 03:41:00;;;;;;;16.17;3.90;;;3.10;99.90;;;;;;6661979;89;20210;-76
2021/03/05 03:51:08;;;;;;;14.48;4.47;;;3.00;99.90;;;;;;6682551;89;20911;-75
2021/03/05 04:01:11;;;;;;;19.25;6.00;;;3.10;99.90;;;;;;6665790;89;20215;-77
2021/03/05 04:11:12;;;;;;;29.80;10.18;;;3.10;99.90;;;;;;6655940;89;20702;-76
2021/03/05 04:21:22;;;;;;;38.03;11.50;;;3.30;99.90;;;;;;6656282;89;20705;-77
2021/03/05 04:31:23;;;;;;;47.60;13.23;;;3.10;99.90;;;;;;6667448;89;20235;-77
2021/03/05 04:41:23;;;;;;;45.33;14.95;;;3.20;99.90;;;;;;6667377;89;20320;-76
2021/03/05 04:51:24;;;;;;;44.60;14.82;;;3.30;99.90;;;;;;6657287;89;20259;-77
2021/03/05 05:01:24;;;;;;;40.80;14.93;;;3.40;99.90;;;;;;6651912;89;20713;-76
2021/03/05 05:11:25;;;;;;;45.33;14.32;;;3.50;99.90;;;;;;6654883;89;20545;-76
2021/03/05 05:21:26;;;;;;;39.05;13.02;;;3.50;99.90;;;;;;6653563;89;20663;-77
2021/03/05 05:31:26;;;;;;;34.22;13.25;;;3.60;99.90;;;;;;6653074;89;20238;-76
2021/03/05 05:41:27;;;;;;;35.45;12.27;;;3.60;99.90;;;;;;6652598;89;20231;-76
2021/03/05 05:51:29;;;;;;;38.85;13.70;;;3.70;99.90;;;;;;6653230;89;20571;-77
2021/03/05 06:01:34;;;;;;;27.98;11.50;;;3.60;99.90;;;;;;6652083;89;20250;-76
2021/03/05 06:11:36;;;;;;;26.33;11.00;;;3.60;99.90;;;;;;6655048;89;20209;-77
2021/03/05 06:21:39;;;;;;;25.73;10.82;;;3.50;99.90;;;;;;6653825;89;20206;-76
2021/03/05 06:31:39;;;;;;;21.50;9.65;;;3.50;99.90;;;;;;6656060;89;20673;-77
2021/03/05 06:41:40;;;;;;;19.35;8.88;;;3.50;99.90;;;;;;6660333;89;20221;-76
2021/03/05 06:51:50;;;;;;;17.73;7.90;;;3.50;99.90;;;;;;6652675;89;20253;-78
2021/03/05 07:01:58;;;;;;;17.95;8.80;;;3.60;99.90;;;;;;6653570;89;20616;-78
2021/03/05 07:12:00;;;;;;;15.15;7.45;;;3.60;99.90;;;;;;6674076;88;20228;-77
2021/03/05 07:22:01;;;;;;;15.35;7.18;;;3.60;99.90;;;;;;6672560;89;20646;-77
2021/03/05 07:32:16;;;;;;;15.75;8.18;;;3.90;99.90;;;;;;6671615;89;20194;-78
2021/03/05 07:42:18;;;;;;;15.32;6.85;;;4.00;99.90;;;;;;6669670;89;20296;-77
2021/03/05 07:52:19;;;;;;;15.13;7.53;;;4.10;99.90;;;;;;6671620;89;20194;-76
2021/03/05 08:02:22;;;;;;;15.70;8.07;;;4.40;99.90;;;;;;6670851;89;20273;-77
2021/03/05 08:12:32;;;;;;;12.88;7.10;;;5.00;99.90;;;;;;6692886;78;20213;-76
2021/03/05 08:22:53;;;;;;;12.73;6.47;;;6.30;99.90;;;;;;6684938;88;20234;-76
2021/03/05 08:33:05;;;;;;;9.73;4.97;;;7.10;99.90;;;;;;6683793;88;20220;-75
2021/03/05 08:43:18;;;;;;;10.02;5.10;;;7.10;99.90;;;;;;6683598;88;20163;-76
2021/03/05 08:53:18;;;;;;;6.82;3.92;;;7.70;99.90;;;;;;6685961;88;20199;-75
2021/03/05 09:03:19;;;;;;;6.47;3.62;;;7.80;99.90;;;;;;6683194;88;20189;-76
2021/03/05 09:13:23;;;;;;;7.15;3.37;;;8.40;99.90;;;;;;6684582;88;20193;-76
2021/03/05 09:23:41;;;;;;;7.30;3.58;;;8.60;99.90;;;;;;6681872;88;20236;-76
2021/03/05 09:33:44;;;;;;;9.30;3.70;;;8.40;99.90;;;;;;6683004;88;20223;-76
2021/03/05 09:43:55;;;;;;;6.18;3.80;;;8.70;99.90;;;;;;6680243;88;20244;-76
2021/03/05 09:53:57;;;;;;;7.45;3.42;;;9.80;99.40;;;;;;6684309;88;20245;-76
2021/03/05 10:04:00;;;;;;;7.45;3.45;;;8.60;99.90;;;;;;6684640;88;20192;-76
2021/03/05 10:14:02;;;;;;;5.70;2.95;;;7.90;99.90;;;;;;6683083;88;20667;-76
2021/03/05 10:24:13;;;;;;;8.05;2.87;;;7.80;99.90;;;;;;6679157;88;20409;-76
2021/03/05 10:34:23;;;;;;;6.45;2.80;;;8.90;99.90;;;;;;6682098;88;20240;-76
2021/03/05 10:44:25;;;;;;;5.12;2.40;;;10.20;96.10;;;;;;6686951;89;20196;-76
2021/03/05 10:54:25;;;;;;;4.37;2.22;;;8.70;97.00;;;;;;6675945;88;20774;-76
2021/03/05 11:04:26;;;;;;;5.07;2.37;;;9.90;93.80;;;;;;6681878;89;20332;-76
2021/03/05 11:14:28;;;;;;;5.70;2.47;;;9.00;96.00;;;;;;6680312;89;20313;-76
2021/03/05 11:24:29;;;;;;;6.15;2.33;;;9.00;96.10;;;;;;6678588;88;20275;-76
2021/03/05 11:34:29;;;;;;;4.53;2.00;;;8.60;96.30;;;;;;6680889;88;20307;-75
2021/03/05 11:44:30;;;;;;;3.70;1.97;;;8.70;94.00;;;;;;6680953;88;20269;-75
2021/03/05 11:54:31;;;;;;;6.97;2.58;;;8.80;94.70;;;;;;6691428;88;20802;-75
2021/03/05 12:04:31;;;;;;;4.15;2.00;;;8.40;95.60;;;;;;6675311;88;20251;-74
2021/03/05 12:14:32;;;;;;;3.33;2.00;;;10.60;88.00;;;;;;6676286;88;20554;-74
2021/03/05 12:24:32;;;;;;;4.82;2.33;;;12.90;77.70;;;;;;6677549;88;20319;-74
2021/03/05 12:34:33;;;;;;;3.42;2.00;;;12.50;74.00;;;;;;6676855;88;20203;-74
2021/03/05 12:44:33;;;;;;;4.53;2.03;;;11.20;77.50;;;;;;6679536;88;20245;-75
2021/03/05 12:54:33;;;;;;;5.95;2.33;;;10.50;77.40;;;;;;6674203;88;20677;-74
2021/03/05 13:04:34;;;;;;;4.25;2.47;;;12.10;76.60;;;;;;6674873;88;20654;-75
2021/03/05 13:14:35;;;;;;;4.50;2.37;;;10.30;79.70;;;;;;6685358;88;20827;-75
2021/03/05 13:24:36;;;;;;;4.53;2.37;;;9.70;84.20;;;;;;6678900;88;20268;-75
2021/03/05 13:34:36;;;;;;;5.68;2.50;;;8.60;85.40;;;;;;6679176;88;20674;-75
2021/03/05 13:44:37;;;;;;;5.10;2.50;;;12.50;74.90;;;;;;6676834;88;20210;-75
2021/03/05 13:54:37;;;;;;;3.83;2.35;;;13.80;69.30;;;;;;6675482;88;20204;-75
2021/03/05 14:14:41;;;;;;;6.12;2.58;;;15.60;64.70;;;;;;6667837;89;20313;-78
2021/03/05 14:24:42;;;;;;;4.82;2.40;;;15.50;60.00;;;;;;6665797;89;20236;-77
2021/03/05 14:34:42;;;;;;;4.22;2.03;;;14.10;60.00;;;;;;6666558;89;20642;-77
2021/03/05 14:44:43;;;;;;;3.47;2.12;;;13.60;59.30;;;;;;6665704;89;20207;-77
2021/03/05 14:54:43;;;;;;;5.15;1.87;;;13.40;61.80;;;;;;6666332;89;20631;-77
2021/03/05 15:04:44;;;;;;;6.28;2.30;;;12.90;59.00;;;;;;6667534;89;20272;-76
2021/03/05 15:14:45;;;;;;;4.00;2.00;;;12.50;61.60;;;;;;6668213;89;20176;-79
2021/03/05 15:24:47;;;;;;;4.53;1.62;;;12.30;61.50;;;;;;6669278;89;20191;-76
2021/03/05 15:34:47;;;;;;;3.15;1.70;;;11.80;59.70;;;;;;6676275;88;20256;-77
2021/03/05 15:44:48;;;;;;;2.60;1.48;;;11.00;60.50;;;;;;6687093;88;20200;-78
2021/03/05 15:54:49;;;;;;;2.40;1.40;;;11.40;60.10;;;;;;6682029;88;20274;-78
2021/03/05 16:04:50;;;;;;;6.50;1.50;;;10.60;58.50;;;;;;6684869;88;20244;-78
2021/03/05 16:14:50;;;;;;;3.25;1.55;;;10.10;60.10;;;;;;6686987;88;20210;-76
2021/03/05 16:24:51;;;;;;;2.62;1.40;;;9.40;63.40;;;;;;6688905;88;20326;-77
2021/03/05 16:34:51;;;;;;;3.45;1.45;;;9.00;63.90;;;;;;6689113;88;20751;-77
2021/03/05 16:44:52;;;;;;;3.90;1.40;;;8.50;65.10;;;;;;6688506;88;20208;-78
2021/03/05 16:54:53;;;;;;;2.92;1.20;;;8.10;66.60;;;;;;6693477;88;20204;-77
2021/03/05 17:04:54;;;;;;;4.18;1.60;;;7.60;68.30;;;;;;6690231;88;20191;-79
2021/03/05 17:14:55;;;;;;;5.25;1.65;;;7.10;71.60;;;;;;6692020;88;20317;-77
2021/03/05 17:24:56;;;;;;;3.87;1.60;;;6.40;72.60;;;;;;6687242;88;20208;-79
2021/03/05 17:34:56;;;;;;;2.83;1.40;;;6.10;76.70;;;;;;6687354;88;20203;-76
2021/03/05 17:44:57;;;;;;;5.75;1.65;;;5.60;80.50;;;;;;6686217;88;20186;-78
2021/03/05 17:54:58;;;;;;;3.45;1.60;;;5.40;86.00;;;;;;6687438;88;20270;-79
2021/03/05 18:04:58;;;;;;;4.60;1.67;;;5.20;93.20;;;;;;6686779;88;20625;-76
2021/03/05 18:14:59;;;;;;;4.72;2.28;;;4.80;92.40;;;;;;6686516;88;20209;-76
2021/03/05 18:24:59;;;;;;;6.53;2.40;;;4.40;99.90;;;;;;6702678;88;20189;-77
2021/03/05 18:35:00;;;;;;;4.43;1.92;;;4.30;99.90;;;;;;6697169;88;20245;-76
2021/03/05 18:45:02;;;;;;;4.93;2.40;;;4.10;99.90;;;;;;6668147;89;20703;-76
2021/03/05 18:55:05;;;;;;;4.53;2.05;;;3.80;99.90;;;;;;6681059;89;20676;-76
2021/03/05 19:05:07;;;;;;;5.87;2.70;;;3.90;99.90;;;;;;6681241;89;20191;-77
2021/03/05 19:15:09;;;;;;;6.95;2.53;;;3.60;99.90;;;;;;6672923;89;20209;-75
2021/03/05 19:25:12;;;;;;;6.12;2.62;;;3.60;99.90;;;;;;6680565;89;20186;-78
2021/03/05 19:35:12;;;;;;;5.65;3.33;;;3.50;99.90;;;;;;6685004;89;20180;-76
2021/03/05 19:45:13;;;;;;;6.50;3.40;;;3.40;99.90;;;;;;6683702;89;20261;-76
2021/03/05 19:55:14;;;;;;;7.35;3.45;;;3.20;99.90;;;;;;6684602;89;20194;-76
2021/03/05 20:05:14;;;;;;;6.72;3.80;;;3.20;99.90;;;;;;6684891;88;20210;-77
2021/03/05 20:15:18;;;;;;;6.85;3.85;;;3.10;99.90;;;;;;6686802;88;20564;-77
2021/03/05 20:25:19;;;;;;;10.55;5.03;;;3.00;99.90;;;;;;6687144;88;20195;-78
2021/03/05 20:35:19;;;;;;;13.13;5.15;;;2.90;99.90;;;;;;6679789;88;20603;-75
2021/03/05 20:45:20;;;;;;;8.98;4.65;;;2.60;99.90;;;;;;6689837;88;20199;-77
2021/03/05 20:55:21;;;;;;;10.48;5.28;;;2.40;99.90;;;;;;6679878;88;20660;-76
2021/03/05 21:05:21;;;;;;;11.55;4.60;;;2.20;99.90;;;;;;6683749;88;20220;-76
2021/03/05 21:15:22;;;;;;;10.85;6.30;;;1.90;99.90;;;;;;6688353;88;20241;-76
2021/03/05 21:25:23;;;;;;;11.63;5.07;;;1.70;99.90;;;;;;6681529;88;20227;-76
2021/03/05 21:35:23;;;;;;;11.88;5.30;;;1.60;99.90;;;;;;6671589;88;20646;-76
2021/03/05 21:45:24;;;;;;;11.68;5.43;;;1.60;99.90;;;;;;6694224;88;20318;-76
2021/03/05 21:55:25;;;;;;;9.50;5.22;;;1.90;99.90;;;;;;6680724;88;21148;-77
2021/03/05 22:05:25;;;;;;;10.02;5.45;;;1.70;99.90;;;;;;6684101;88;20379;-76
2021/03/05 22:15:26;;;;;;;10.43;5.18;;;1.30;99.90;;;;;;6681643;88;20801;-77
2021/03/05 22:25:27;;;;;;;11.05;5.35;;;1.00;99.90;;;;;;6685540;88;20690;-78
2021/03/05 22:35:27;;;;;;;10.75;5.35;;;1.00;99.90;;;;;;6698105;88;20175;-82
2021/03/05 22:45:29;;;;;;;16.60;6.05;;;1.10;99.90;;;;;;6716464;88;20170;-83
2021/03/05 22:55:29;;;;;;;12.90;6.22;;;0.90;99.90;;;;;;6716319;88;20843;-82
2021/03/05 23:05:30;;;;;;;12.32;6.07;;;0.80;99.90;;;;;;6716242;88;20243;-80
2021/03/05 23:15:32;;;;;;;10.10;5.62;;;0.60;99.90;;;;;;6715475;88;20491;-80
2021/03/05 23:25:37;;;;;;;11.63;5.53;;;0.60;99.90;;;;;;6715424;88;20207;-80
2021/03/05 23:35:38;;;;;;;12.15;5.37;;;0.60;99.90;;;;;;6711378;88;20280;-80
2021/03/05 23:45:40;;;;;;;13.90;6.00;;;0.50;99.90;;;;;;6713303;88;20193;-81
2021/03/05 23:55:41;;;;;;;11.45;5.87;;;0.30;99.90;;;;;;6718227;88;20855;-80
